Terminal Aerodrome Forecast
Issued by NWS Sterling, VA

Home | Current Version | Previous Version | Text Only | Print | Product List | Glossary On
Versions: 1 2 3 4 5 6 7 8 9 10 11 12
000
FTUS41 KLWX 250542 RRA
TAFCHO
TAF
KCHO 250542Z 2506/2606 VRB03KT P6SM BKN120
     FM251800 13004KT P6SM -RA OVC030
     FM252000 13004KT 3SM -RA OVC025
     FM252100 VRB03KT 2SM -RA OVC015
     FM260300 03004KT 2SM -RA OVC005=

USA.gov is the U.S. government's official web portal to all federal, state and local government web resources and services.